Time;durP1;ratioP1;P1;durP2;ratioP2;P2;SDS_P1;SDS_P2;PMS_P1;PMS_P2;Temp;Humidity;BMP_temperature;BMP_pressure;BME280_temperature;BME280_humidity;BME280_pressure;Samples;Min_cycle;Max_cycle;Signal;HPM_P1;HPM_P2
2022/01/21 00:01:33;;;;;;;1.70;1.30;;;22.60;55.40;;;;;;6117380;23;20385;-84
2022/01/21 00:03:59;;;;;;;1.67;1.37;;;22.60;55.40;;;;;;6092805;23;20390;-84
2022/01/21 00:06:25;;;;;;;2.07;1.30;;;22.60;55.40;;;;;;6117032;23;20432;-84
2022/01/21 00:08:51;;;;;;;2.17;1.47;;;22.60;55.40;;;;;;6092146;23;20390;-84
2022/01/21 00:11:18;;;;;;;2.17;1.40;;;22.60;55.40;;;;;;6092428;23;20378;-84
2022/01/21 00:13:45;;;;;;;1.53;0.97;;;22.60;55.40;;;;;;6093238;23;20437;-83
2022/01/21 00:16:13;;;;;;;2.10;1.37;;;22.60;55.40;;;;;;6093670;23;20374;-84
2022/01/21 00:18:42;;;;;;;1.90;1.10;;;22.60;55.40;;;;;;6093826;23;20393;-84
2022/01/21 00:32:09;;;;;;;1.80;1.13;;;22.60;55.50;;;;;;6208685;23;20367;-85
2022/01/21 00:34:35;;;;;;;1.90;1.20;;;22.50;55.40;;;;;;6183040;23;20490;-84
2022/01/21 00:40:24;;;;;;;1.50;1.17;;;22.50;55.40;;;;;;6210633;23;20669;-85
2022/01/21 00:43:09;;;;;;;1.40;1.00;;;22.50;55.40;;;;;;6182604;23;20388;-84
2022/01/21 00:45:35;;;;;;;1.60;1.10;;;22.50;55.40;;;;;;6209307;23;20398;-83
2022/01/21 00:48:01;;;;;;;2.00;1.07;;;22.50;55.50;;;;;;6182366;23;20387;-84
2022/01/21 00:50:27;;;;;;;1.43;1.20;;;22.50;55.50;;;;;;6183452;23;20393;-84
2022/01/21 00:52:53;;;;;;;1.67;1.20;;;22.50;55.50;;;;;;6182024;23;20429;-84
2022/01/21 00:55:19;;;;;;;2.10;1.60;;;22.50;55.50;;;;;;6182186;23;20163;-84
2022/01/21 00:57:45;;;;;;;2.03;1.30;;;22.50;55.40;;;;;;6182316;23;20374;-84
2022/01/21 01:00:13;;;;;;;1.80;1.10;;;22.50;55.50;;;;;;6182505;23;20156;-84
2022/01/21 01:02:39;;;;;;;2.00;1.27;;;22.50;55.40;;;;;;6181439;23;20147;-84
2022/01/21 01:05:07;;;;;;;1.43;1.10;;;22.50;55.50;;;;;;6183595;23;20406;-84
2022/01/21 01:07:35;;;;;;;1.80;1.43;;;22.50;55.50;;;;;;6210599;23;20381;-84
2022/01/21 01:10:03;;;;;;;1.60;1.17;;;22.50;55.50;;;;;;6186528;23;20414;-84
2022/01/21 01:12:59;;;;;;;1.40;1.10;;;22.50;55.40;;;;;;6186734;23;20383;-84
2022/01/21 01:20:45;;;;;;;1.37;0.90;;;22.50;55.50;;;;;;6214883;23;20451;-84
2022/01/21 01:23:25;;;;;;;1.53;1.03;;;22.50;55.50;;;;;;6188645;23;20391;-84
2022/01/21 01:28:36;;;;;;;2.47;1.97;;;22.50;55.50;;;;;;6214347;23;20415;-84
2022/01/21 01:31:02;;;;;;;1.23;1.07;;;22.40;55.40;;;;;;6188813;23;20395;-84
2022/01/21 01:33:35;;;;;;;2.30;1.30;;;22.50;55.50;;;;;;6188300;23;20163;-84
2022/01/21 01:39:38;;;;;;;1.63;1.17;;;22.50;55.50;;;;;;6213461;23;20414;-84
2022/01/21 01:50:05;;;;;;;2.43;1.03;;;22.40;55.40;;;;;;6213388;23;20334;-84
2022/01/21 01:52:31;;;;;;;1.60;1.30;;;22.50;55.50;;;;;;6186886;23;20390;-84
2022/01/21 01:54:57;;;;;;;1.40;1.07;;;22.40;55.40;;;;;;6212861;23;20358;-84
2022/01/21 02:00:46;;;;;;;1.83;1.00;;;22.50;55.50;;;;;;6213363;23;20331;-84
2022/01/21 02:03:15;;;;;;;1.80;1.20;;;22.40;55.40;;;;;;6187312;23;20403;-84
2022/01/21 02:05:44;;;;;;;2.50;0.93;;;22.40;55.40;;;;;;6186941;23;20438;-84
2022/01/21 02:08:11;;;;;;;1.60;1.03;;;22.40;55.40;;;;;;6186814;23;20378;-84
2022/01/21 02:10:39;;;;;;;1.00;0.80;;;22.40;55.40;;;;;;6212321;23;20389;-84
2022/01/21 02:13:18;;;;;;;1.83;1.20;;;22.50;55.50;;;;;;6186687;23;20395;-84
2022/01/21 02:15:59;;;;;;;1.93;1.33;;;22.50;55.40;;;;;;6186698;23;20371;-84
2022/01/21 02:23:55;;;;;;;1.60;1.00;;;22.50;55.50;;;;;;6223163;23;20335;-84
2022/01/21 02:26:21;;;;;;;1.43;1.00;;;22.40;55.30;;;;;;6161991;23;20418;-84
2022/01/21 02:28:47;;;;;;;1.37;1.10;;;22.40;55.30;;;;;;6186804;23;20384;-84
2022/01/21 02:31:13;;;;;;;1.70;1.43;;;22.50;55.40;;;;;;6212412;23;20363;-84
2022/01/21 02:33:39;;;;;;;1.20;1.00;;;22.40;55.30;;;;;;6212608;23;20368;-84
2022/01/21 02:39:27;;;;;;;1.00;0.80;;;22.50;55.40;;;;;;6212088;23;20150;-83
2022/01/21 02:41:53;;;;;;;1.57;0.90;;;22.40;55.30;;;;;;6187098;23;20372;-84
2022/01/21 02:44:19;;;;;;;2.70;1.07;;;22.40;55.30;;;;;;6162366;23;20395;-84
2022/01/21 02:46:47;;;;;;;1.47;1.00;;;22.40;55.30;;;;;;6186444;23;20433;-84
2022/01/21 02:49:13;;;;;;;1.57;1.13;;;22.40;55.30;;;;;;6162520;23;20387;-84
2022/01/21 02:51:39;;;;;;;1.20;0.80;;;22.50;55.40;;;;;;6186526;23;20390;-84
2022/01/21 02:54:05;;;;;;;1.80;1.20;;;22.40;55.30;;;;;;6186664;23;20443;-84
2022/01/21 02:56:36;;;;;;;1.20;0.90;;;22.40;55.30;;;;;;6161375;23;20219;-84
2022/01/21 02:59:04;;;;;;;1.20;0.90;;;22.50;55.40;;;;;;6186471;23;20394;-84
2022/01/21 03:01:33;;;;;;;1.63;1.10;;;22.40;55.30;;;;;;6186134;23;20379;-85
2022/01/21 03:03:59;;;;;;;1.70;1.30;;;22.40;55.30;;;;;;6186755;23;20390;-85
2022/01/21 03:06:25;;;;;;;2.30;1.17;;;22.40;55.30;;;;;;6186141;23;20414;-84
2022/01/21 03:08:53;;;;;;;1.40;0.93;;;22.40;55.30;;;;;;6186172;23;20372;-84
2022/01/21 03:11:21;;;;;;;1.53;1.00;;;22.40;55.20;;;;;;6186125;23;20379;-84
2022/01/21 03:13:47;;;;;;;2.97;1.10;;;22.40;55.20;;;;;;6162044;23;20430;-84
2022/01/21 03:16:13;;;;;;;1.20;0.87;;;22.40;55.30;;;;;;6186924;23;20446;-85
2022/01/21 03:18:39;;;;;;;1.70;1.00;;;22.40;55.20;;;;;;6185588;23;20379;-85
2022/01/21 03:21:07;;;;;;;2.07;0.80;;;22.40;55.20;;;;;;6184797;23;20394;-84
2022/01/21 03:23:34;;;;;;;1.43;1.30;;;22.40;55.20;;;;;;6209839;23;20367;-84
2022/01/21 03:26:01;;;;;;;1.43;0.90;;;22.40;55.30;;;;;;6184142;23;20446;-84
2022/01/21 03:28:50;;;;;;;1.40;0.93;;;22.40;55.20;;;;;;6188494;23;20403;-84
2022/01/21 03:31:17;;;;;;;1.30;0.90;;;22.40;55.20;;;;;;6188057;23;20383;-84
2022/01/21 03:33:43;;;;;;;1.63;1.47;;;22.40;55.30;;;;;;6162596;23;20367;-84
2022/01/21 03:36:10;;;;;;;1.50;0.93;;;22.40;55.30;;;;;;6187648;23;20399;-84
2022/01/21 03:38:36;;;;;;;1.97;1.67;;;22.40;55.30;;;;;;6212916;23;20355;-85
2022/01/21 03:41:03;;;;;;;1.50;1.10;;;22.40;55.30;;;;;;6212856;23;20414;-85
2022/01/21 03:43:29;;;;;;;1.40;1.17;;;22.40;55.30;;;;;;6188878;23;20391;-85
2022/01/21 03:45:55;;;;;;;1.27;0.90;;;22.40;55.20;;;;;;6214481;23;20398;-85
2022/01/21 03:48:21;;;;;;;0.97;0.80;;;22.40;55.30;;;;;;6214277;23;20363;-84
2022/01/21 03:50:48;;;;;;;1.73;1.20;;;22.40;55.30;;;;;;6188784;23;20375;-84
2022/01/21 03:53:14;;;;;;;1.40;0.90;;;22.40;55.20;;;;;;6188731;23;20389;-84
2022/01/21 03:55:40;;;;;;;1.67;1.10;;;22.40;55.20;;;;;;6188213;23;20391;-84
2022/01/21 03:58:08;;;;;;;1.87;1.07;;;22.40;55.20;;;;;;6188654;23;20147;-84
2022/01/21 04:00:38;;;;;;;1.33;0.90;;;22.40;55.30;;;;;;6188403;23;20387;-84
2022/01/21 04:03:05;;;;;;;1.83;0.90;;;22.40;55.20;;;;;;6188399;23;20414;-84
2022/01/21 04:05:31;;;;;;;1.83;1.00;;;22.40;55.20;;;;;;6188341;23;20393;-84
2022/01/21 04:07:57;;;;;;;2.63;1.20;;;22.40;55.20;;;;;;6214023;23;20360;-84
2022/01/21 04:10:24;;;;;;;1.40;0.80;;;22.40;55.20;;;;;;6187312;23;20414;-84
2022/01/21 04:12:50;;;;;;;1.30;0.93;;;22.40;55.20;;;;;;6213833;23;20415;-84
2022/01/21 04:15:16;;;;;;;2.03;1.00;;;22.40;55.20;;;;;;6212654;23;20375;-84
2022/01/21 04:17:45;;;;;;;1.20;0.80;;;22.40;55.20;;;;;;6211969;23;20382;-85
2022/01/21 04:20:13;;;;;;;1.80;1.13;;;22.40;55.20;;;;;;6186356;23;20760;-84
2022/01/21 04:22:39;;;;;;;1.77;0.90;;;22.40;55.20;;;;;;6186796;23;20386;-84
2022/01/21 04:25:06;;;;;;;1.80;1.00;;;22.40;55.20;;;;;;6212751;23;20363;-84
2022/01/21 04:27:32;;;;;;;1.57;0.83;;;22.40;55.80;;;;;;6212862;23;20390;-84
2022/01/21 04:29:58;;;;;;;1.73;0.93;;;22.40;55.30;;;;;;6213383;23;20425;-84
2022/01/21 04:32:24;;;;;;;1.47;0.80;;;22.40;55.20;;;;;;6212996;23;20379;-84
2022/01/21 04:34:50;;;;;;;1.63;1.07;;;22.40;55.30;;;;;;6187764;23;20207;-84
2022/01/21 04:37:17;;;;;;;1.20;0.90;;;22.40;55.20;;;;;;6187680;23;20152;-84
2022/01/21 04:39:51;;;;;;;1.43;1.00;;;22.40;55.30;;;;;;6187465;23;20402;-84
2022/01/21 04:47:32;;;;;;;1.73;0.80;;;22.40;55.20;;;;;;6213711;23;20351;-84
2022/01/21 04:49:58;;;;;;;1.17;0.80;;;22.40;55.20;;;;;;6187429;23;20381;-84
2022/01/21 04:52:24;;;;;;;1.13;0.83;;;22.40;55.20;;;;;;6186239;23;20387;-84
2022/01/21 04:54:51;;;;;;;1.10;0.80;;;22.40;55.20;;;;;;6186641;23;20379;-84
2022/01/21 04:57:17;;;;;;;1.50;0.93;;;22.40;55.20;;;;;;6212306;23;20704;-85
2022/01/21 04:59:43;;;;;;;1.23;0.83;;;22.40;55.20;;;;;;6185507;23;20394;-85
2022/01/21 05:02:09;;;;;;;1.80;1.00;;;22.40;55.20;;;;;;6185353;23;20456;-85
2022/01/21 05:04:36;;;;;;;1.63;1.10;;;22.40;55.20;;;;;;6184634;23;20756;-85
2022/01/21 05:07:05;;;;;;;1.20;1.10;;;22.40;55.20;;;;;;6210044;23;20419;-85
2022/01/21 05:09:33;;;;;;;2.17;1.00;;;22.40;55.20;;;;;;6210423;23;20458;-85
2022/01/21 05:12:02;;;;;;;1.10;0.90;;;22.30;55.10;;;;;;6211162;23;20382;-85
2022/01/21 05:14:46;;;;;;;1.40;1.07;;;22.30;55.10;;;;;;6185433;23;20386;-85
2022/01/21 05:17:13;;;;;;;1.00;0.90;;;22.30;55.10;;;;;;6210788;23;20356;-85
2022/01/21 05:19:39;;;;;;;1.20;1.10;;;22.30;55.10;;;;;;6186387;23;20383;-85
2022/01/21 05:25:27;;;;;;;1.30;0.90;;;22.30;55.10;;;;;;6208706;23;20414;-86
2022/01/21 05:27:58;;;;;;;2.27;1.00;;;22.30;55.20;;;;;;6183811;23;20458;-85
2022/01/21 05:30:24;;;;;;;1.80;0.93;;;22.30;55.20;;;;;;6182957;23;20202;-85
2022/01/21 05:32:50;;;;;;;0.80;0.60;;;22.30;55.20;;;;;;6184380;23;20397;-85
2022/01/21 05:35:19;;;;;;;1.20;1.03;;;22.30;55.20;;;;;;6184803;23;20383;-85
2022/01/21 05:37:45;;;;;;;1.53;1.00;;;22.30;55.30;;;;;;6184796;23;20778;-86
2022/01/21 05:40:17;;;;;;;1.40;0.90;;;22.30;55.30;;;;;;6182051;23;20438;-86
2022/01/21 05:42:43;;;;;;;3.00;1.10;;;22.30;55.30;;;;;;6187974;23;20132;-84
2022/01/21 05:47:55;;;;;;;1.23;0.90;;;22.30;55.20;;;;;;6212757;23;20343;-85
2022/01/21 05:50:21;;;;;;;1.30;1.07;;;22.30;55.10;;;;;;6187536;23;20375;-85
2022/01/21 05:52:47;;;;;;;1.67;1.00;;;22.30;55.10;;;;;;6186955;23;20398;-85
2022/01/21 05:55:15;;;;;;;1.20;0.80;;;22.30;55.00;;;;;;6212688;23;20171;-85
2022/01/21 05:57:41;;;;;;;1.77;0.87;;;22.30;55.00;;;;;;6187185;23;20418;-85
2022/01/21 06:00:09;;;;;;;1.10;0.70;;;22.30;55.10;;;;;;6187770;23;20395;-85
2022/01/21 06:02:36;;;;;;;1.83;1.10;;;22.30;55.10;;;;;;6213180;23;20367;-85
2022/01/21 06:05:03;;;;;;;1.83;0.80;;;22.30;55.10;;;;;;6186277;23;20367;-84
2022/01/21 06:07:28;;;;;;;1.70;0.90;;;22.30;55.10;;;;;;6184700;23;20375;-85
2022/01/21 06:09:54;;;;;;;1.30;0.90;;;22.30;55.10;;;;;;6183163;23;20405;-85
2022/01/21 06:12:20;;;;;;;1.30;1.00;;;22.30;55.10;;;;;;6209406;23;20367;-85
2022/01/21 06:14:46;;;;;;;1.00;0.70;;;22.30;55.10;;;;;;6208417;23;20199;-85
2022/01/21 06:17:14;;;;;;;1.30;0.80;;;22.30;55.10;;;;;;6183625;23;20167;-85
2022/01/21 06:19:40;;;;;;;1.67;0.80;;;22.30;55.10;;;;;;6208799;23;20171;-85
2022/01/21 06:22:07;;;;;;;1.40;0.77;;;22.30;55.10;;;;;;6207794;23;20447;-85
2022/01/21 06:24:33;;;;;;;2.10;0.97;;;22.30;55.10;;;;;;6182560;23;20391;-85
2022/01/21 06:30:22;;;;;;;1.40;1.00;;;22.30;55.10;;;;;;6208322;23;20135;-85
2022/01/21 06:32:47;;;;;;;1.40;0.90;;;22.30;55.10;;;;;;6207978;23;20413;-85
2022/01/21 06:35:14;;;;;;;1.00;0.80;;;22.30;55.20;;;;;;6157490;23;20383;-85
2022/01/21 06:37:40;;;;;;;1.20;0.70;;;22.30;55.20;;;;;;6181898;23;20155;-85
2022/01/21 06:40:07;;;;;;;1.63;0.90;;;22.30;55.10;;;;;;6181367;23;20395;-85
2022/01/21 06:42:34;;;;;;;2.43;1.03;;;22.30;55.10;;;;;;6180972;23;20391;-85
2022/01/21 06:45:01;;;;;;;1.20;1.00;;;22.30;55.10;;;;;;6180695;23;20379;-85
2022/01/21 06:47:27;;;;;;;1.57;0.90;;;22.30;55.10;;;;;;6207518;23;20360;-85
2022/01/21 06:49:54;;;;;;;1.00;0.70;;;22.30;55.10;;;;;;6181901;23;20390;-85
2022/01/21 06:52:21;;;;;;;1.80;0.83;;;22.30;55.10;;;;;;6208129;23;20399;-85
2022/01/21 06:54:48;;;;;;;1.90;0.87;;;22.30;55.10;;;;;;6208213;23;20380;-85
2022/01/21 06:57:15;;;;;;;1.93;0.93;;;22.30;55.10;;;;;;6206796;23;20459;-85
2022/01/21 06:59:41;;;;;;;0.83;0.67;;;22.30;55.10;;;;;;6181148;23;20407;-85
2022/01/21 07:02:07;;;;;;;1.80;0.83;;;22.30;55.10;;;;;;6180209;23;20414;-85
2022/01/21 07:04:33;;;;;;;1.30;0.80;;;22.30;55.10;;;;;;6178473;23;20494;-85
2022/01/21 07:07:01;;;;;;;1.63;1.00;;;22.30;55.60;;;;;;6203244;23;20410;-85
2022/01/21 07:09:27;;;;;;;1.57;0.70;;;22.30;55.00;;;;;;6204120;23;20371;-85
2022/01/21 07:11:53;;;;;;;2.23;1.00;;;22.30;55.10;;;;;;6203869;23;20375;-85
2022/01/21 07:14:20;;;;;;;1.83;1.00;;;22.30;55.00;;;;;;6177207;23;20411;-85
2022/01/21 07:16:47;;;;;;;1.27;0.87;;;22.30;55.00;;;;;;6178109;23;20391;-85
2022/01/21 07:19:13;;;;;;;1.23;0.80;;;22.30;55.00;;;;;;6180026;23;20446;-85
2022/01/21 07:21:39;;;;;;;1.30;0.90;;;22.30;55.00;;;;;;6181447;23;20471;-85
2022/01/21 07:24:07;;;;;;;1.47;1.00;;;22.30;55.00;;;;;;6206494;23;20382;-85
2022/01/21 07:26:32;;;;;;;0.90;0.70;;;22.30;55.00;;;;;;6181394;23;20422;-84
2022/01/21 07:28:58;;;;;;;1.43;1.00;;;22.40;55.10;;;;;;6181336;23;20387;-85
2022/01/21 07:34:46;;;;;;;1.37;0.90;;;22.40;55.10;;;;;;6206025;23;20228;-85
2022/01/21 07:37:13;;;;;;;1.40;1.00;;;22.30;55.00;;;;;;6179919;23;20387;-85
2022/01/21 07:39:39;;;;;;;1.77;0.90;;;22.30;55.00;;;;;;6180216;23;20198;-85
2022/01/21 07:42:05;;;;;;;0.90;0.70;;;22.30;55.00;;;;;;6206073;23;20372;-85
2022/01/21 07:44:30;;;;;;;1.20;0.90;;;22.40;55.10;;;;;;6179976;23;20152;-86
2022/01/21 07:46:58;;;;;;;1.20;0.70;;;22.40;55.10;;;;;;6178537;23;20422;-85
2022/01/21 07:49:24;;;;;;;1.30;0.83;;;22.40;55.10;;;;;;6180039;23;20155;-85
2022/01/21 07:51:50;;;;;;;1.20;0.97;;;22.40;55.10;;;;;;6206133;23;20355;-85
2022/01/21 07:54:15;;;;;;;1.60;1.00;;;22.40;55.10;;;;;;6179934;23;20156;-85
2022/01/21 07:56:41;;;;;;;1.47;0.70;;;22.40;55.10;;;;;;6179843;23;20583;-84
2022/01/21 07:59:10;;;;;;;1.10;0.73;;;22.40;55.10;;;;;;6179221;23;20395;-85
2022/01/21 08:01:38;;;;;;;1.20;1.10;;;22.40;55.10;;;;;;6179792;23;20611;-84
2022/01/21 08:04:04;;;;;;;1.30;0.67;;;22.40;55.10;;;;;;6180068;23;20395;-85
2022/01/21 08:06:30;;;;;;;0.93;0.70;;;22.40;55.10;;;;;;6205185;23;20473;-85
2022/01/21 08:12:18;;;;;;;1.30;1.00;;;22.40;55.00;;;;;;6206209;23;20391;-85
2022/01/21 08:14:45;;;;;;;1.10;0.77;;;22.40;55.10;;;;;;6205446;23;20375;-85
2022/01/21 08:17:11;;;;;;;1.20;0.80;;;22.40;55.10;;;;;;6179702;23;20156;-85
2022/01/21 08:19:37;;;;;;;1.10;0.73;;;22.40;55.10;;;;;;6179411;23;20378;-85
2022/01/21 08:22:03;;;;;;;1.00;0.80;;;22.40;55.10;;;;;;6178310;23;20414;-85
2022/01/21 08:24:29;;;;;;;1.40;0.80;;;22.40;55.10;;;;;;6178972;23;20379;-85
2022/01/21 08:26:58;;;;;;;1.10;0.80;;;22.40;55.10;;;;;;6205112;23;20471;-85
2022/01/21 08:29:24;;;;;;;1.27;0.77;;;22.40;55.00;;;;;;6177803;23;20876;-84
2022/01/21 08:31:49;;;;;;;1.20;0.80;;;22.40;55.00;;;;;;6179140;23;20387;-85
2022/01/21 08:34:16;;;;;;;1.50;0.87;;;22.40;55.00;;;;;;6178320;23;20372;-84
2022/01/21 08:36:43;;;;;;;1.10;0.70;;;22.40;55.60;;;;;;6205391;23;20651;-84
2022/01/21 08:39:09;;;;;;;1.00;0.60;;;22.40;55.00;;;;;;6204433;23;20406;-84
2022/01/21 08:41:35;;;;;;;0.93;0.63;;;22.40;55.00;;;;;;6178133;23;20399;-85
2022/01/21 08:44:01;;;;;;;1.63;0.90;;;22.40;55.00;;;;;;6179387;23;20469;-85
2022/01/21 08:46:27;;;;;;;4.77;0.87;;;22.40;55.00;;;;;;6179179;23;20186;-84
2022/01/21 08:48:53;;;;;;;0.87;0.70;;;22.40;55.00;;;;;;6179278;23;20383;-84
2022/01/21 08:51:25;;;;;;;1.47;0.80;;;22.40;55.00;;;;;;6179003;23;20155;-84
2022/01/21 08:53:51;;;;;;;0.93;0.77;;;22.40;55.00;;;;;;6178662;23;20151;-84
2022/01/21 08:59:39;;;;;;;1.73;1.00;;;22.40;55.00;;;;;;6205213;23;20418;-84
2022/01/21 09:02:05;;;;;;;1.00;0.80;;;22.40;55.00;;;;;;6178181;23;20383;-85
2022/01/21 09:04:32;;;;;;;1.10;0.90;;;22.40;55.10;;;;;;6179333;23;20156;-84
2022/01/21 09:06:58;;;;;;;1.10;0.80;;;22.40;55.10;;;;;;6204773;23;20438;-85
2022/01/21 09:12:46;;;;;;;1.00;0.70;;;22.40;55.00;;;;;;6204557;23;20880;-84
2022/01/21 09:15:12;;;;;;;1.00;0.70;;;22.40;55.10;;;;;;6178612;23;20402;-84
2022/01/21 09:17:39;;;;;;;1.33;0.90;;;22.40;55.10;;;;;;6178640;23;20152;-85
2022/01/21 09:20:05;;;;;;;1.07;0.73;;;22.40;55.10;;;;;;6205029;23;20189;-84
2022/01/21 09:22:32;;;;;;;1.70;1.03;;;22.40;55.10;;;;;;6179629;23;20383;-85
2022/01/21 09:25:05;;;;;;;0.97;0.70;;;22.40;55.00;;;;;;6204414;23;20364;-84
2022/01/21 09:27:31;;;;;;;1.30;0.87;;;22.40;55.00;;;;;;6179574;23;20418;-84
2022/01/21 09:29:57;;;;;;;0.83;0.60;;;22.40;55.00;;;;;;6180574;23;20377;-84
2022/01/21 09:35:45;;;;;;;1.00;0.70;;;22.50;55.10;;;;;;6205547;23;20143;-85
2022/01/21 09:38:11;;;;;;;1.47;1.10;;;22.40;55.00;;;;;;6206487;23;20378;-85
2022/01/21 09:40:44;;;;;;;1.10;0.70;;;22.40;55.10;;;;;;6181715;23;20866;-85
2022/01/21 09:43:12;;;;;;;2.10;0.80;;;22.40;55.10;;;;;;6180656;23;20375;-85
2022/01/21 09:45:39;;;;;;;1.03;0.80;;;22.40;55.00;;;;;;6180557;23;20450;-85
2022/01/21 09:48:06;;;;;;;1.80;0.83;;;22.40;55.00;;;;;;6180742;23;20383;-85
2022/01/21 09:50:33;;;;;;;1.30;0.90;;;22.40;55.10;;;;;;6207468;23;20471;-85
2022/01/21 09:52:59;;;;;;;1.20;0.80;;;22.50;55.10;;;;;;6181384;23;20372;-85
2022/01/21 09:55:25;;;;;;;1.07;0.80;;;22.40;55.00;;;;;;6206795;23;20458;-84
2022/01/21 09:57:54;;;;;;;0.90;0.70;;;22.40;55.00;;;;;;6179252;23;20386;-84
2022/01/21 10:00:23;;;;;;;1.40;0.80;;;22.40;55.00;;;;;;6206166;23;20187;-85
2022/01/21 10:02:49;;;;;;;1.50;1.00;;;22.40;55.00;;;;;;6179718;23;20379;-85
2022/01/21 10:05:16;;;;;;;1.07;0.83;;;22.40;55.00;;;;;;6181722;23;20391;-85
2022/01/21 10:07:46;;;;;;;1.20;0.90;;;22.40;55.00;;;;;;6207778;23;20398;-84
2022/01/21 10:10:14;;;;;;;1.00;0.70;;;22.40;55.00;;;;;;6181523;23;20375;-85
2022/01/21 10:12:44;;;;;;;1.00;0.80;;;22.40;55.00;;;;;;6181216;23;20372;-85
2022/01/21 10:15:11;;;;;;;1.13;0.90;;;22.40;55.00;;;;;;6181849;23;20431;-84
2022/01/21 10:17:38;;;;;;;1.10;0.80;;;22.40;55.00;;;;;;6182467;23;20388;-84
2022/01/21 10:20:16;;;;;;;1.43;0.80;;;22.40;55.00;;;;;;6181833;23;20367;-85
2022/01/21 10:23:03;;;;;;;1.20;0.80;;;22.40;55.00;;;;;;6181514;23;20390;-85
2022/01/21 10:25:30;;;;;;;1.10;0.87;;;22.40;55.00;;;;;;6209312;23;20466;-83
2022/01/21 10:28:17;;;;;;;1.20;0.80;;;22.40;55.00;;;;;;6185288;23;20447;-83
2022/01/21 10:30:45;;;;;;;1.07;0.77;;;22.40;55.00;;;;;;6187021;23;20435;-83
2022/01/21 10:33:22;;;;;;;1.83;1.07;;;22.40;55.00;;;;;;6186457;23;20427;-83
2022/01/21 10:35:49;;;;;;;1.83;1.00;;;22.40;55.00;;;;;;6210275;23;20450;-83
2022/01/21 10:38:18;;;;;;;1.17;0.90;;;22.40;54.90;;;;;;6207780;23;20398;-85
2022/01/21 10:40:44;;;;;;;1.37;1.20;;;22.40;54.90;;;;;;6183676;23;20401;-84
2022/01/21 10:43:18;;;;;;;1.70;1.30;;;22.40;54.90;;;;;;6207740;23;20857;-84
2022/01/21 10:45:57;;;;;;;1.57;1.10;;;22.40;54.90;;;;;;6209793;23;20418;-84
2022/01/21 10:48:24;;;;;;;1.57;0.93;;;22.40;54.90;;;;;;6210102;23;20406;-84
2022/01/21 10:51:19;;;;;;;1.10;0.90;;;22.40;54.90;;;;;;6209062;23;20724;-84
2022/01/21 10:53:45;;;;;;;1.10;0.70;;;22.40;55.00;;;;;;6183993;23;20430;-84
2022/01/21 10:56:15;;;;;;;1.20;0.90;;;22.40;55.00;;;;;;6206136;23;20391;-84
2022/01/21 10:58:43;;;;;;;1.43;1.00;;;22.40;55.00;;;;;;6204882;23;20367;-84
2022/01/21 11:01:16;;;;;;;1.20;0.80;;;22.40;55.00;;;;;;6177985;23;20380;-84
2022/01/21 11:04:00;;;;;;;1.13;0.90;;;22.40;55.00;;;;;;6204879;23;20343;-84
2022/01/21 11:06:39;;;;;;;2.10;1.13;;;22.40;55.00;;;;;;6177672;23;20450;-85
2022/01/21 11:09:18;;;;;;;1.17;0.80;;;22.40;55.00;;;;;;6177893;23;20382;-85
2022/01/21 11:11:47;;;;;;;1.60;0.90;;;22.40;55.00;;;;;;6171303;23;20744;-84
2022/01/21 11:14:19;;;;;;;1.40;0.80;;;22.40;55.00;;;;;;6177223;23;20414;-84
2022/01/21 11:16:48;;;;;;;1.30;0.80;;;22.40;55.00;;;;;;6177377;23;20371;-85
2022/01/21 11:19:34;;;;;;;1.57;0.90;;;22.40;55.00;;;;;;6177566;23;20387;-84
2022/01/21 11:22:04;;;;;;;1.73;1.07;;;22.40;55.00;;;;;;6176646;23;20390;-84
2022/01/21 11:24:30;;;;;;;1.20;0.80;;;22.40;55.00;;;;;;6177590;23;20414;-85
2022/01/21 11:27:09;;;;;;;1.40;0.80;;;22.40;55.00;;;;;;6177196;23;20445;-84
2022/01/21 11:29:35;;;;;;;1.10;0.80;;;22.40;55.00;;;;;;6176788;23;20406;-84
2022/01/21 11:32:03;;;;;;;1.33;0.87;;;22.40;55.00;;;;;;6177317;23;20458;-84
2022/01/21 11:34:29;;;;;;;2.00;1.00;;;22.40;55.00;;;;;;6177809;23;20451;-84
2022/01/21 11:36:56;;;;;;;1.23;0.73;;;22.40;54.90;;;;;;6177841;23;20386;-85
2022/01/21 11:39:24;;;;;;;0.90;0.70;;;22.40;54.90;;;;;;6204702;23;20371;-84
2022/01/21 11:41:51;;;;;;;1.83;1.10;;;22.40;54.90;;;;;;6178268;23;20398;-84
2022/01/21 11:44:21;;;;;;;1.23;1.03;;;22.40;54.90;;;;;;6178826;23;20382;-84
2022/01/21 11:49:35;;;;;;;1.73;1.13;;;22.40;54.90;;;;;;6204504;23;20395;-84
2022/01/21 11:55:30;;;;;;;1.20;0.83;;;22.40;54.90;;;;;;6204883;23;20346;-85
2022/01/21 11:58:21;;;;;;;1.20;0.80;;;22.40;55.00;;;;;;6204547;23;20371;-84
2022/01/21 12:00:50;;;;;;;1.37;0.90;;;22.40;55.00;;;;;;6193722;23;20376;-85
2022/01/21 12:03:18;;;;;;;0.90;0.70;;;22.40;55.00;;;;;;6183279;23;20383;-83
2022/01/21 12:05:44;;;;;;;1.50;0.97;;;22.40;55.00;;;;;;6181600;23;20418;-83
2022/01/21 12:08:10;;;;;;;1.97;1.00;;;22.40;55.00;;;;;;6205557;23;20384;-83
2022/01/21 12:10:44;;;;;;;1.23;0.70;;;22.40;55.00;;;;;;6180704;23;20391;-83
2022/01/21 12:13:14;;;;;;;1.83;1.03;;;22.40;55.00;;;;;;6207330;23;20124;-83
2022/01/21 12:15:52;;;;;;;1.60;1.07;;;22.40;55.00;;;;;;6208917;23;20454;-83
2022/01/21 12:18:42;;;;;;;1.10;0.80;;;22.40;55.00;;;;;;6180134;23;20394;-84
2022/01/21 12:21:27;;;;;;;1.43;1.10;;;22.40;55.00;;;;;;6206302;23;20348;-83
2022/01/21 12:23:53;;;;;;;1.40;1.20;;;22.40;55.00;;;;;;6179884;23;20385;-84
2022/01/21 12:26:25;;;;;;;1.70;1.03;;;22.40;55.00;;;;;;6206137;23;20414;-84
2022/01/21 12:28:57;;;;;;;1.93;1.30;;;22.40;55.00;;;;;;6179310;23;20387;-84
2022/01/21 12:31:55;;;;;;;2.30;1.30;;;22.40;55.00;;;;;;6179938;23;20387;-84
2022/01/21 12:34:22;;;;;;;2.77;1.50;;;22.40;55.00;;;;;;6179422;23;20390;-85
2022/01/21 12:36:50;;;;;;;1.80;1.00;;;22.40;55.00;;;;;;6180376;23;20387;-84
2022/01/21 12:39:34;;;;;;;3.00;1.60;;;22.40;55.00;;;;;;6180063;23;20393;-84
2022/01/21 12:42:24;;;;;;;2.23;1.27;;;22.40;55.00;;;;;;6180818;23;20474;-83
2022/01/21 12:45:16;;;;;;;2.40;1.50;;;22.40;55.10;;;;;;6206488;23;20362;-86
2022/01/21 12:47:55;;;;;;;3.17;1.77;;;22.40;55.10;;;;;;6172712;23;20398;-84
2022/01/21 12:53:15;;;;;;;3.20;1.80;;;22.40;55.10;;;;;;6213760;23;20367;-85
2022/01/21 12:55:56;;;;;;;2.40;1.83;;;22.40;55.10;;;;;;6178415;23;20443;-85
2022/01/21 12:58:33;;;;;;;2.40;1.83;;;22.40;55.10;;;;;;6177736;23;20872;-85
2022/01/21 13:01:00;;;;;;;3.27;2.13;;;22.40;55.10;;;;;;6180422;23;20367;-85
2022/01/21 13:03:47;;;;;;;2.20;1.80;;;22.40;55.20;;;;;;6181543;23;20375;-85
2022/01/21 13:06:18;;;;;;;2.83;1.80;;;22.40;55.20;;;;;;6208126;23;20402;-85
2022/01/21 13:09:09;;;;;;;4.07;2.47;;;22.40;55.20;;;;;;6182091;23;20380;-85
2022/01/21 13:11:42;;;;;;;3.87;2.47;;;22.40;55.20;;;;;;6182194;23;20374;-86
2022/01/21 13:14:26;;;;;;;3.23;1.67;;;22.40;55.30;;;;;;6157840;23;20372;-85
2022/01/21 13:17:00;;;;;;;3.40;1.90;;;22.40;55.30;;;;;;6208400;23;20355;-85
2022/01/21 13:19:27;;;;;;;2.40;1.77;;;22.40;55.30;;;;;;6181965;23;20861;-85
2022/01/21 13:21:54;;;;;;;3.03;1.80;;;22.40;55.30;;;;;;6206934;23;20371;-85
2022/01/21 13:24:28;;;;;;;3.20;2.10;;;22.40;55.30;;;;;;6180231;23;20398;-85
2022/01/21 13:26:56;;;;;;;2.27;1.80;;;22.50;55.40;;;;;;6208226;23;20880;-86
2022/01/21 13:29:35;;;;;;;3.30;1.50;;;22.50;55.40;;;;;;6182279;23;20383;-87
2022/01/21 13:32:05;;;;;;;2.47;1.70;;;22.50;55.40;;;;;;6181584;23;20809;-87
2022/01/21 13:34:41;;;;;;;1.80;1.57;;;22.50;55.40;;;;;;6208362;23;20435;-86
2022/01/21 13:37:18;;;;;;;2.97;1.83;;;22.50;55.40;;;;;;6208597;23;20379;-87
2022/01/21 13:39:47;;;;;;;4.00;2.50;;;22.50;55.40;;;;;;6182100;23;20428;-86
2022/01/21 13:42:23;;;;;;;1.97;1.47;;;22.50;55.90;;;;;;6157759;23;20395;-85
2022/01/21 13:45:01;;;;;;;3.27;1.90;;;22.50;55.50;;;;;;6158963;23;20387;-86
2022/01/21 13:47:28;;;;;;;3.33;1.50;;;22.50;55.40;;;;;;6182627;23;20391;-87
2022/01/21 13:50:13;;;;;;;3.30;1.90;;;22.40;55.30;;;;;;6181372;23;20392;-86
2022/01/21 13:52:55;;;;;;;3.30;1.97;;;22.50;55.40;;;;;;6180403;23;20359;-87
2022/01/21 13:55:44;;;;;;;1.80;1.30;;;22.50;55.40;;;;;;6180011;23;20375;-88
2022/01/21 13:58:14;;;;;;;2.23;1.50;;;22.50;55.40;;;;;;6180242;23;20363;-87
2022/01/21 14:00:51;;;;;;;3.23;1.43;;;22.40;55.30;;;;;;6204594;23;20383;-87
2022/01/21 14:03:24;;;;;;;2.70;1.60;;;22.40;55.30;;;;;;6179387;23;20403;-88
2022/01/21 14:09:04;;;;;;;1.53;1.30;;;22.50;55.40;;;;;;6206889;23;20489;-87
2022/01/21 14:11:44;;;;;;;4.90;1.50;;;22.40;55.30;;;;;;6208424;23;20387;-87
2022/01/21 14:14:11;;;;;;;1.60;1.33;;;22.40;55.30;;;;;;6209206;23;20343;-87
2022/01/21 14:16:40;;;;;;;1.97;1.30;;;22.40;55.30;;;;;;6180521;23;20466;-87
2022/01/21 14:19:12;;;;;;;2.43;1.47;;;22.40;55.30;;;;;;6182344;23;20383;-86
2022/01/21 14:21:40;;;;;;;3.53;1.57;;;22.40;55.30;;;;;;6208563;23;20827;-88
2022/01/21 14:24:22;;;;;;;3.60;1.70;;;22.40;55.20;;;;;;6205073;23;20383;-86
2022/01/21 14:26:57;;;;;;;2.80;1.30;;;22.50;55.30;;;;;;6201532;23;20451;-86
2022/01/21 14:29:42;;;;;;;2.53;1.57;;;22.50;55.30;;;;;;6180061;23;20401;-86